CheckWX is a tool to help pilots better visualize weather data.  It is not intended as a substitute for an official pre-flight weather briefing.

07:11:51 UTC

KELY TAF
Ely Arpt / Yelland Field / Airport
Ely, Nevada, USA
KELY 230520Z 2306/2406 18012KT P6SM SCT090 BKN250 FM231300 18008KT P6SM BKN090 FM231700 36007KT P6SM BKN090

Sep-23@
06:00 UTC

Sep-23 @ 06:00 UTC

Sep-23@
13:00 UTC

Sep-23 @ 13:00 UTC

KELY 230520Z 2306/2406 18012KT P6SM SCT090 BKN250
Wind
  • 180° at 12 KTS
Cloud Levels
  • Scattered at 9,000' AGL
  • Broken at 25,000' AGL

Sep-23@
13:00 UTC

Sep-23 @ 13:00 UTC

Sep-23@
17:00 UTC

Sep-23 @ 17:00 UTC

FM231300 18008KT P6SM BKN090

From

From Standard forecast or significant change

Wind
  • 180° at 8 KTS
Cloud Levels
  • Broken at 9,000' AGL

Sep-23@
17:00 UTC

Sep-23 @ 17:00 UTC

Sep-24@
06:00 UTC

Sep-24 @ 06:00 UTC

FM231700 36007KT P6SM BKN090

From

From Standard forecast or significant change

Wind
  • 360° at 7 KTS
Cloud Levels
  • Broken at 9,000' AGL